createdAt,value
2019-04-21T00:01:57.834Z,20.25
2019-04-21T00:04:40.804Z,20.90
2019-04-21T00:07:33.118Z,20.57
2019-04-21T00:09:56.408Z,19.77
2019-04-21T00:12:18.255Z,19.70
2019-04-21T00:14:43.600Z,21.65
2019-04-21T00:17:09.101Z,22.10
2019-04-21T00:19:43.000Z,23.38
2019-04-21T00:22:22.910Z,22.73
2019-04-21T00:24:58.391Z,22.50
2019-04-21T00:27:28.587Z,21.97
2019-04-21T00:30:09.182Z,21.00
2019-04-21T00:32:29.208Z,23.27
2019-04-21T00:34:51.240Z,24.30
2019-04-21T00:37:25.718Z,22.35
2019-04-21T00:40:03.699Z,26.35
2019-04-21T00:42:34.220Z,23.27
2019-04-21T00:45:03.470Z,22.90
2019-04-21T00:47:34.522Z,24.32
2019-04-21T00:50:05.050Z,21.85
2019-04-21T00:52:52.550Z,22.93
2019-04-21T00:55:31.266Z,22.35
2019-04-21T00:57:57.137Z,24.63
2019-04-21T01:00:23.320Z,19.00
2019-04-21T01:02:56.475Z,24.80
2019-04-21T01:05:33.823Z,23.77
2019-04-21T01:07:50.660Z,25.72
2019-04-21T01:10:17.456Z,21.20
2019-04-21T01:12:57.700Z,19.87
2019-04-21T01:15:37.110Z,21.12
2019-04-21T01:17:57.753Z,20.97
2019-04-21T01:20:16.978Z,22.37
2019-04-21T01:22:40.248Z,24.07
2019-04-21T01:25:20.362Z,22.93
2019-04-21T01:27:53.832Z,26.50
2019-04-21T01:30:34.668Z,24.27
2019-04-21T01:33:07.650Z,26.02
2019-04-21T01:35:36.666Z,25.70
2019-04-21T01:38:07.168Z,22.20
2019-04-21T01:40:42.623Z,25.68
2019-04-21T01:43:07.599Z,24.35
2019-04-21T01:45:40.111Z,23.55
2019-04-21T01:48:01.178Z,26.15
2019-04-21T01:50:36.329Z,24.47
2019-04-21T01:53:24.364Z,51.90
2019-04-21T01:55:54.227Z,75.00
2019-04-21T01:58:19.515Z,75.25
2019-04-21T02:00:51.887Z,45.75
2019-04-21T02:06:09.743Z,32.45
2019-04-21T02:08:28.769Z,26.62
2019-04-21T02:11:05.265Z,26.15
2019-04-21T02:13:28.214Z,26.40
2019-04-21T02:18:29.197Z,26.37
2019-04-21T02:20:50.134Z,24.27
2019-04-21T02:23:38.045Z,24.15
2019-04-21T02:26:03.339Z,28.87
2019-04-21T02:28:42.484Z,30.23
2019-04-21T02:31:20.608Z,42.40
2019-04-21T02:33:50.715Z,32.40
2019-04-21T02:38:50.280Z,34.05
2019-04-21T02:41:18.203Z,37.00
2019-04-21T02:43:50.041Z,33.13
2019-04-21T02:46:22.303Z,37.73
2019-04-21T02:48:56.456Z,38.98
2019-04-21T02:51:23.775Z,37.67
2019-04-21T02:56:20.436Z,39.60
2019-04-21T03:04:13.644Z,44.15
2019-04-21T03:07:07.323Z,45.88
2019-04-21T03:09:32.179Z,47.10
2019-04-21T03:12:08.648Z,46.85
2019-04-21T03:14:43.512Z,46.85
2019-04-21T03:17:03.459Z,47.93
2019-04-21T03:19:36.203Z,46.70
2019-04-21T03:22:05.216Z,40.92
2019-04-21T03:24:29.470Z,43.78
2019-04-21T03:27:09.692Z,48.20
2019-04-21T03:29:48.262Z,44.58
2019-04-21T03:39:29.531Z,48.17
2019-04-21T03:42:07.287Z,49.83
2019-04-21T03:44:32.368Z,52.33
2019-04-21T03:47:08.831Z,51.77
2019-04-21T03:49:40.716Z,51.70
2019-04-21T03:54:41.926Z,49.25
2019-04-21T03:59:38.046Z,52.93
2019-04-21T04:02:16.592Z,55.60
2019-04-21T04:04:47.568Z,53.90
2019-04-21T04:07:42.525Z,51.23
2019-04-21T04:12:35.077Z,47.93
2019-04-21T04:15:00.981Z,44.77
2019-04-21T04:17:40.737Z,47.25
2019-04-21T04:20:03.965Z,48.25
2019-04-21T04:22:45.573Z,41.70
2019-04-21T04:27:53.104Z,42.08
2019-04-21T04:30:12.497Z,43.92
2019-04-21T04:32:48.275Z,35.15
2019-04-21T04:35:15.375Z,38.78
2019-04-21T04:37:46.941Z,37.93
2019-04-21T04:40:13.377Z,34.35
2019-04-21T04:45:25.733Z,34.95
2019-04-21T04:47:53.081Z,33.88
2019-04-21T04:52:48.792Z,37.42
2019-04-21T04:55:23.626Z,43.02
2019-04-21T05:00:25.743Z,56.83
2019-04-21T05:02:48.375Z,49.67
2019-04-21T05:08:01.640Z,43.38
2019-04-21T05:10:17.321Z,42.08
2019-04-21T05:12:46.109Z,35.83
2019-04-21T05:17:54.799Z,34.18
2019-04-21T05:22:47.288Z,33.45
2019-04-21T05:25:08.612Z,35.92
2019-04-21T05:27:45.173Z,32.30
2019-04-21T05:30:28.642Z,32.38
2019-04-21T05:32:52.529Z,32.42
2019-04-21T05:35:42.992Z,29.35
2019-04-21T05:38:17.485Z,30.92
2019-04-21T05:43:21.314Z,31.52
2019-04-21T05:45:53.544Z,29.48
2019-04-21T05:48:39.890Z,29.72
2019-04-21T05:50:53.772Z,28.75
2019-04-21T05:56:03.580Z,34.35
2019-04-21T05:58:34.873Z,29.67
2019-04-21T06:01:28.756Z,29.72
2019-04-21T06:03:54.966Z,31.42
2019-04-21T06:06:26.430Z,28.10
2019-04-21T06:08:53.923Z,28.62
2019-04-21T06:14:02.496Z,30.43
2019-04-21T06:16:36.441Z,26.23
2019-04-21T06:19:22.587Z,27.37
2019-04-21T06:21:38.543Z,24.77
2019-04-21T06:24:20.425Z,25.43
2019-04-21T06:29:28.616Z,22.93
2019-04-21T06:32:27.509Z,24.77
2019-04-21T06:34:49.586Z,25.25
2019-04-21T06:37:34.879Z,25.15
2019-04-21T06:42:14.723Z,26.68
2019-04-21T06:47:36.440Z,27.93
2019-04-21T06:49:55.498Z,27.87
2019-04-21T06:54:56.079Z,26.50
2019-04-21T06:57:29.158Z,29.55
2019-04-21T06:59:57.450Z,27.50
2019-04-21T07:02:49.277Z,26.75
2019-04-21T07:05:09.182Z,28.55
2019-04-21T07:07:43.295Z,28.57
2019-04-21T07:10:14.376Z,29.07
2019-04-21T07:12:43.547Z,28.47
2019-04-21T07:15:25.202Z,28.05
2019-04-21T07:18:05.606Z,29.23
2019-04-21T07:20:31.006Z,29.10
2019-04-21T07:23:11.232Z,26.77
2019-04-21T07:25:39.220Z,30.37
2019-04-21T07:28:10.281Z,27.77
2019-04-21T07:30:44.256Z,29.40
2019-04-21T07:33:33.181Z,30.27
2019-04-21T07:35:45.765Z,27.17
2019-04-21T07:38:11.867Z,29.10
2019-04-21T07:40:39.993Z,28.50
2019-04-21T07:43:07.945Z,29.75
2019-04-21T07:45:41.551Z,28.62
2019-04-21T07:48:36.184Z,26.75
2019-04-21T07:51:11.151Z,29.77
2019-04-21T07:53:52.603Z,24.23
2019-04-21T07:55:59.353Z,28.92
2019-04-21T07:58:47.697Z,28.40
2019-04-21T08:01:18.063Z,26.77
2019-04-21T08:03:46.744Z,27.58
2019-04-21T08:06:12.215Z,25.30
2019-04-21T08:08:41.072Z,25.82
2019-04-21T08:11:09.130Z,28.15
2019-04-21T08:13:48.804Z,28.42
2019-04-21T08:16:19.578Z,29.07
2019-04-21T08:18:45.275Z,26.48
2019-04-21T08:21:11.080Z,24.32
2019-04-21T08:23:43.390Z,25.00
2019-04-21T08:26:17.426Z,27.48
2019-04-21T08:28:49.557Z,27.73
2019-04-21T08:31:25.743Z,22.90
2019-04-21T08:34:08.376Z,28.07
2019-04-21T08:38:48.246Z,22.80
2019-04-21T08:41:18.685Z,24.43
2019-04-21T08:44:05.204Z,27.37
2019-04-21T08:46:20.148Z,27.52
2019-04-21T08:53:53.469Z,26.60
2019-04-21T08:56:21.438Z,28.60
2019-04-21T08:59:02.223Z,24.67
2019-04-21T09:01:36.834Z,26.57
2019-04-21T09:04:15.586Z,26.95
2019-04-21T09:06:58.907Z,27.93
2019-04-21T09:09:16.698Z,24.77
2019-04-21T09:11:40.440Z,23.62
2019-04-21T09:14:15.298Z,27.75
2019-04-21T09:16:44.325Z,28.80
2019-04-21T09:19:20.286Z,24.32
2019-04-21T09:24:18.994Z,24.18
2019-04-21T09:26:41.418Z,25.65
2019-04-21T09:29:07.773Z,27.27
2019-04-21T09:31:33.779Z,28.98
2019-04-21T09:34:02.330Z,25.90
2019-04-21T09:36:35.096Z,25.43
2019-04-21T09:39:06.650Z,24.43
2019-04-21T09:41:29.740Z,22.85
2019-04-21T09:43:59.755Z,24.32
2019-04-21T09:46:34.169Z,24.30
2019-04-21T09:49:06.483Z,27.37
2019-04-21T09:51:33.004Z,23.62
2019-04-21T09:54:08.245Z,26.40
2019-04-21T09:56:43.621Z,24.77
2019-04-21T09:59:11.404Z,24.80
2019-04-21T10:01:52.912Z,24.82
2019-04-21T10:04:05.496Z,22.55
2019-04-21T10:06:33.224Z,20.48
2019-04-21T10:09:04.727Z,24.82
2019-04-21T10:11:33.294Z,20.82
2019-04-21T10:14:03.107Z,21.85
2019-04-21T10:16:36.422Z,19.75
2019-04-21T10:19:05.082Z,22.48
2019-04-21T10:21:33.960Z,24.50
2019-04-21T10:24:02.531Z,20.37
2019-04-21T10:26:31.185Z,24.12
2019-04-21T10:29:08.127Z,25.70
2019-04-21T10:31:30.190Z,20.80
2019-04-21T10:33:58.954Z,20.57
2019-04-21T10:36:27.753Z,17.95
2019-04-21T10:38:58.994Z,20.35
2019-04-21T10:41:27.814Z,21.90
2019-04-21T10:43:56.639Z,21.12
2019-04-21T10:46:26.600Z,21.33
2019-04-21T10:48:56.792Z,23.35
2019-04-21T10:51:25.497Z,22.32
2019-04-21T10:53:55.971Z,25.80
2019-04-21T10:56:32.637Z,25.60
2019-04-21T10:58:56.245Z,24.05
2019-04-21T11:01:27.209Z,28.62
2019-04-21T11:03:58.542Z,23.77
2019-04-21T11:06:28.796Z,24.55
2019-04-21T11:09:01.025Z,19.52
2019-04-21T11:11:28.063Z,20.05
2019-04-21T11:13:56.892Z,19.02
2019-04-21T11:16:26.898Z,21.02
2019-04-21T11:18:56.073Z,19.62
2019-04-21T11:21:25.028Z,18.80
2019-04-21T11:23:54.263Z,16.60
2019-04-21T11:26:24.177Z,15.63
2019-04-21T11:28:52.918Z,19.90
2019-04-21T11:31:22.910Z,15.08
2019-04-21T11:33:51.769Z,21.57
2019-04-21T11:36:21.611Z,20.32
2019-04-21T11:39:06.165Z,19.12
2019-04-21T11:41:23.872Z,16.23
2019-04-21T11:43:53.171Z,17.57
2019-04-21T11:46:22.488Z,16.37
2019-04-21T11:48:52.493Z,16.27
2019-04-21T11:51:21.260Z,18.12
2019-04-21T11:53:51.307Z,22.05
2019-04-21T11:56:20.907Z,15.30
2019-04-21T11:58:49.950Z,15.75
2019-04-21T12:01:18.823Z,14.15
2019-04-21T12:03:47.611Z,17.90
2019-04-21T12:06:17.448Z,16.62
2019-04-21T12:08:49.877Z,14.20
2019-04-21T12:11:17.680Z,17.95
2019-04-21T12:13:47.816Z,15.43
2019-04-21T12:16:17.030Z,15.18
2019-04-21T12:18:47.169Z,18.02
2019-04-21T12:21:15.900Z,16.32
2019-04-21T12:23:44.874Z,18.27
2019-04-21T12:26:14.018Z,17.27
2019-04-21T12:28:43.935Z,15.50
2019-04-21T12:31:14.247Z,15.63
2019-04-21T12:33:45.769Z,16.05
2019-04-21T12:36:15.755Z,13.88
2019-04-21T12:38:53.603Z,16.60
2019-04-21T12:41:15.000Z,14.38
2019-04-21T12:43:44.536Z,15.15
2019-04-21T12:46:13.917Z,23.42
2019-04-21T12:48:44.103Z,13.62
2019-04-21T12:51:13.008Z,16.75
2019-04-21T12:53:41.730Z,14.65
2019-04-21T12:56:11.620Z,14.13
2019-04-21T12:58:41.526Z,13.35
2019-04-21T13:01:10.499Z,13.35
2019-04-21T13:03:39.698Z,14.03
2019-04-21T13:06:09.742Z,13.00
2019-04-21T13:08:45.578Z,13.48
2019-04-21T13:11:09.570Z,13.40
2019-04-21T13:13:39.880Z,14.33
2019-04-21T13:16:09.614Z,15.45
2019-04-21T13:18:39.598Z,12.68
2019-04-21T13:21:08.245Z,12.40
2019-04-21T13:23:37.032Z,12.47
2019-04-21T13:26:06.540Z,12.50
2019-04-21T13:28:37.533Z,12.43
2019-04-21T13:31:06.618Z,13.18
2019-04-21T13:33:35.821Z,18.73
2019-04-21T13:36:05.059Z,12.00
2019-04-21T13:38:42.202Z,13.95
2019-04-21T13:41:22.692Z,13.28
2019-04-21T13:43:41.325Z,15.60
2019-04-21T13:46:11.954Z,14.43
2019-04-21T13:48:42.367Z,13.20
2019-04-21T13:51:11.321Z,13.90
2019-04-21T13:53:41.886Z,13.75
2019-04-21T13:56:10.809Z,12.07
2019-04-21T13:58:40.589Z,13.78
2019-04-21T14:01:09.887Z,15.50
2019-04-21T14:03:39.703Z,14.23
2019-04-21T14:06:08.600Z,16.00
2019-04-21T14:08:40.193Z,14.35
2019-04-21T14:11:07.568Z,14.80
2019-04-21T14:13:36.500Z,15.15
2019-04-21T14:16:06.236Z,15.03
2019-04-21T14:18:34.913Z,35.33
2019-04-21T14:21:05.058Z,28.90
2019-04-21T14:23:40.621Z,14.98
2019-04-21T14:26:08.734Z,16.10
2019-04-21T14:28:40.963Z,15.23
2019-04-21T14:31:10.510Z,15.55
2019-04-21T14:33:42.174Z,14.75
2019-04-21T14:36:12.766Z,14.20
2019-04-21T14:38:45.279Z,14.05
2019-04-21T14:41:22.170Z,17.98
2019-04-21T14:44:02.873Z,16.37
2019-04-21T14:46:37.415Z,13.83
2019-04-21T14:52:03.035Z,15.13
2019-04-21T14:54:34.528Z,15.10
2019-04-21T14:57:11.859Z,14.75
2019-04-21T14:59:44.791Z,14.47
2019-04-21T15:02:20.293Z,12.95
2019-04-21T15:04:55.720Z,17.10
2019-04-21T15:07:27.479Z,13.83
2019-04-21T15:10:04.449Z,14.03
2019-04-21T15:12:31.863Z,15.48
2019-04-21T15:15:33.989Z,10.75
2019-04-21T15:18:04.123Z,40.03
2019-04-21T15:20:42.784Z,13.28
2019-04-21T15:23:12.452Z,14.70
2019-04-21T15:25:41.900Z,12.78
2019-04-21T15:28:11.695Z,14.70
2019-04-21T15:30:42.776Z,13.60
2019-04-21T15:33:12.610Z,18.25
2019-04-21T15:35:47.021Z,14.05
2019-04-21T15:38:18.110Z,14.60
2019-04-21T15:40:58.066Z,16.25
2019-04-21T15:43:30.971Z,23.22
2019-04-21T15:46:00.715Z,14.13
2019-04-21T15:48:30.783Z,12.18
2019-04-21T15:51:03.631Z,11.83
2019-04-21T15:53:37.559Z,15.40
2019-04-21T15:56:17.225Z,12.00
2019-04-21T15:58:56.771Z,11.28
2019-04-21T16:01:28.262Z,10.93
2019-04-21T16:03:59.180Z,10.75
2019-04-21T16:06:27.704Z,10.78
2019-04-21T16:08:58.973Z,15.60
2019-04-21T16:11:28.858Z,14.55
2019-04-21T16:13:59.650Z,10.48
2019-04-21T16:16:33.821Z,13.58
2019-04-21T16:19:12.395Z,11.78
2019-04-21T16:21:44.380Z,12.13
2019-04-21T16:24:12.247Z,14.63
2019-04-21T16:27:03.512Z,14.55
2019-04-21T16:29:31.296Z,13.78
2019-04-21T16:32:07.165Z,14.23
2019-04-21T16:34:47.312Z,15.63
2019-04-21T16:37:17.314Z,13.62
2019-04-21T16:39:51.944Z,26.37
2019-04-21T16:42:20.656Z,16.52
2019-04-21T16:44:54.687Z,10.30
2019-04-21T16:47:30.184Z,15.18
2019-04-21T16:49:58.969Z,16.40
2019-04-21T16:52:34.184Z,12.58
2019-04-21T16:55:16.906Z,11.65
2019-04-21T16:58:00.700Z,11.18
2019-04-21T17:00:59.522Z,14.15
2019-04-21T17:03:28.309Z,9.85
2019-04-21T17:06:13.129Z,13.88
2019-04-21T17:08:43.126Z,13.32
2019-04-21T17:11:31.656Z,12.53
2019-04-21T17:13:58.231Z,18.20
2019-04-21T17:17:13.480Z,13.45
2019-04-21T17:19:25.074Z,10.85
2019-04-21T17:21:47.925Z,16.60
2019-04-21T17:24:16.956Z,14.07
2019-04-21T17:26:51.363Z,14.33
2019-04-21T17:29:20.893Z,16.45
2019-04-21T17:31:50.508Z,14.23
2019-04-21T17:34:27.700Z,10.95
2019-04-21T17:36:55.037Z,13.32
2019-04-21T17:39:24.903Z,14.47
2019-04-21T17:42:12.972Z,12.05
2019-04-21T17:44:35.207Z,16.15
2019-04-21T17:47:13.265Z,15.05
2019-04-21T17:49:37.047Z,16.20
2019-04-21T17:52:25.035Z,13.70
2019-04-21T17:55:09.256Z,13.93
2019-04-21T17:57:57.082Z,15.95
2019-04-21T18:00:52.057Z,18.55
2019-04-21T18:03:01.803Z,14.53
2019-04-21T18:05:37.260Z,19.50
2019-04-21T18:08:07.030Z,19.90
2019-04-21T18:10:39.017Z,18.98
2019-04-21T18:13:01.342Z,17.65
2019-04-21T18:15:44.173Z,16.40
2019-04-21T18:17:57.123Z,18.17
2019-04-21T18:20:46.116Z,23.67
2019-04-21T18:23:52.061Z,16.52
2019-04-21T18:26:35.486Z,14.03
2019-04-21T18:28:55.259Z,18.73
2019-04-21T18:31:27.046Z,16.62
2019-04-21T18:34:04.394Z,17.85
2019-04-21T18:36:38.368Z,17.55
2019-04-21T18:39:27.545Z,14.80
2019-04-21T18:42:04.784Z,14.80
2019-04-21T18:47:16.856Z,14.73
2019-04-21T18:49:35.358Z,17.45
2019-04-21T18:52:19.215Z,17.95
2019-04-21T18:54:59.906Z,17.15
2019-04-21T18:57:22.575Z,19.32
2019-04-21T18:59:46.912Z,18.48
2019-04-21T19:02:22.308Z,18.42
2019-04-21T19:04:53.645Z,21.10
2019-04-21T19:07:37.674Z,22.87
2019-04-21T19:10:22.362Z,24.23
2019-04-21T19:13:09.173Z,22.52
2019-04-21T19:15:12.116Z,22.07
2019-04-21T19:20:31.048Z,27.10
2019-04-21T19:22:57.069Z,25.17
2019-04-21T19:25:31.555Z,26.93
2019-04-21T19:28:02.508Z,27.70
2019-04-21T19:30:46.645Z,24.25
2019-04-21T19:33:03.851Z,24.20
2019-04-21T19:35:27.693Z,25.02
2019-04-21T19:38:04.690Z,21.85
2019-04-21T19:40:52.209Z,21.70
2019-04-21T19:43:30.587Z,27.50
2019-04-21T19:45:56.365Z,27.37
2019-04-21T19:48:28.024Z,34.15
2019-04-21T19:51:04.184Z,38.15
2019-04-21T19:53:32.852Z,45.20
2019-04-21T19:55:47.806Z,51.23
2019-04-21T19:58:20.632Z,40.52
2019-04-21T20:00:53.680Z,45.15
2019-04-21T20:03:24.666Z,62.03
2019-04-21T20:06:04.063Z,79.70
2019-04-21T20:08:37.534Z,85.83
2019-04-21T20:11:18.149Z,75.35
2019-04-21T20:14:12.410Z,61.68
2019-04-21T20:16:21.637Z,64.87
2019-04-21T20:18:38.867Z,54.30
2019-04-21T20:21:04.039Z,51.25
2019-04-21T20:23:39.697Z,49.20
2019-04-21T20:26:08.583Z,52.17
2019-04-21T20:28:49.262Z,51.18
2019-04-21T20:31:23.369Z,49.98
2019-04-21T20:33:59.603Z,50.75
2019-04-21T20:36:26.373Z,45.85
2019-04-21T20:38:49.110Z,46.45
2019-04-21T20:41:33.917Z,43.73
2019-04-21T20:44:03.879Z,44.50
2019-04-21T20:46:35.048Z,46.28
2019-04-21T20:48:59.973Z,44.55
2019-04-21T20:51:35.869Z,45.20
2019-04-21T20:54:01.526Z,47.17
2019-04-21T20:56:34.505Z,45.23
2019-04-21T20:59:07.516Z,47.88
2019-04-21T21:01:34.910Z,50.75
2019-04-21T21:04:01.768Z,48.40
2019-04-21T21:06:36.019Z,49.60
2019-04-21T21:09:07.423Z,49.40
2019-04-21T21:11:43.563Z,51.75
2019-04-21T21:14:12.891Z,53.17
2019-04-21T21:16:46.189Z,48.83
2019-04-21T21:21:40.197Z,50.83
2019-04-21T21:24:15.914Z,50.43
2019-04-21T21:26:52.143Z,50.45
2019-04-21T21:29:11.626Z,51.33
2019-04-21T21:32:04.300Z,56.53
2019-04-21T21:34:28.080Z,55.92
2019-04-21T21:36:55.324Z,57.90
2019-04-21T21:39:36.320Z,61.00
2019-04-21T21:41:48.559Z,55.78
2019-04-21T21:44:17.856Z,61.23
2019-04-21T21:46:53.839Z,66.22
2019-04-21T21:49:27.958Z,65.45
2019-04-21T21:51:56.941Z,61.70
2019-04-21T21:54:15.946Z,64.82
2019-04-21T21:56:44.760Z,65.22
2019-04-21T21:59:20.700Z,68.02
2019-04-21T22:01:50.706Z,62.53
2019-04-21T22:04:23.858Z,71.40
2019-04-21T22:06:55.451Z,75.75
2019-04-21T22:09:18.492Z,77.82
2019-04-21T22:11:48.590Z,81.55
2019-04-21T22:14:26.889Z,85.40
2019-04-21T22:17:08.718Z,74.72
2019-04-21T22:19:37.041Z,73.30
2019-04-21T22:22:09.329Z,73.28
2019-04-21T22:24:35.172Z,75.37
2019-04-21T22:26:52.415Z,71.70
2019-04-21T22:29:21.331Z,71.75
2019-04-21T22:31:52.677Z,74.60
2019-04-21T22:34:27.646Z,68.37
2019-04-21T22:37:01.511Z,64.62
2019-04-21T22:39:42.123Z,61.95
2019-04-21T22:42:01.756Z,65.55
2019-04-21T22:44:22.718Z,65.70
2019-04-21T22:47:02.177Z,65.12
2019-04-21T22:49:23.860Z,59.65
2019-04-21T22:51:53.886Z,63.00
2019-04-21T22:54:28.688Z,62.70
2019-04-21T22:57:02.632Z,67.35
2019-04-21T22:59:26.741Z,60.48
2019-04-21T23:01:55.846Z,59.45
2019-04-21T23:04:36.865Z,59.85
2019-04-21T23:07:02.179Z,56.92
2019-04-21T23:09:26.727Z,58.80
2019-04-21T23:11:56.635Z,56.77
2019-04-21T23:14:26.044Z,59.03
2019-04-21T23:17:04.427Z,54.03
2019-04-21T23:19:44.801Z,54.70
2019-04-21T23:22:18.876Z,51.85
2019-04-21T23:24:54.572Z,53.25
2019-04-21T23:27:16.574Z,54.35
2019-04-21T23:29:58.995Z,53.75
2019-04-21T23:32:19.928Z,57.27
2019-04-21T23:34:37.213Z,51.20
2019-04-21T23:37:11.874Z,53.50
2019-04-21T23:39:37.432Z,48.50
2019-04-21T23:42:06.389Z,50.85
2019-04-21T23:44:41.789Z,53.65
2019-04-21T23:47:10.237Z,55.12
2019-04-21T23:49:49.608Z,55.40
2019-04-21T23:52:10.999Z,52.58
2019-04-21T23:54:38.440Z,57.10
2019-04-21T23:57:14.159Z,57.13
2019-04-21T23:59:46.350Z,56.15
